createdAt,value
2022-09-23T00:00:35.977Z,71.93
2022-09-23T00:03:02.465Z,71.63
2022-09-23T00:05:30.387Z,71.08
2022-09-23T00:07:57.766Z,71.74
2022-09-23T00:10:28.043Z,71.43
2022-09-23T00:12:55.854Z,71.10
2022-09-23T00:15:23.083Z,71.77
2022-09-23T00:17:49.399Z,72.15
2022-09-23T00:20:15.741Z,71.70
2022-09-23T00:22:42.077Z,72.39
2022-09-23T00:25:09.552Z,72.13
2022-09-23T00:27:36.591Z,72.20
2022-09-23T00:30:05.916Z,72.37
2022-09-23T00:32:32.256Z,71.84
2022-09-23T00:34:58.738Z,72.31
2022-09-23T00:37:25.260Z,72.33
2022-09-23T00:39:51.604Z,71.52
2022-09-23T00:42:21.516Z,71.33
2022-09-23T00:44:52.494Z,72.47
2022-09-23T00:47:30.894Z,71.59
2022-09-23T00:50:09.165Z,72.52
2022-09-23T00:52:36.637Z,72.10
2022-09-23T00:55:09.339Z,71.56
2022-09-23T00:57:38.245Z,72.57
2022-09-23T01:00:06.850Z,72.53
2022-09-23T01:02:33.883Z,71.93
2022-09-23T01:05:03.189Z,71.88
2022-09-23T01:07:30.076Z,71.67
2022-09-23T01:09:59.189Z,72.08
2022-09-23T01:12:49.763Z,71.85
2022-09-23T01:15:38.028Z,71.48
2022-09-23T01:18:43.359Z,72.42
2022-09-23T01:21:24.868Z,72.03
2022-09-23T01:24:06.592Z,72.54
2022-09-23T01:26:58.992Z,72.89
2022-09-23T01:30:10.697Z,73.23
2022-09-23T01:32:52.345Z,72.75
2022-09-23T01:35:30.343Z,72.56
2022-09-23T01:38:15.181Z,72.39
2022-09-23T01:40:51.981Z,72.46
2022-09-23T01:43:35.554Z,72.79
2022-09-23T01:46:07.376Z,72.99
2022-09-23T01:48:46.528Z,72.19
2022-09-23T01:51:23.836Z,72.75
2022-09-23T01:54:18.261Z,72.36
2022-09-23T01:56:58.689Z,73.03
2022-09-23T01:59:35.687Z,73.09
2022-09-23T02:02:15.281Z,72.15
2022-09-23T02:04:47.981Z,72.80
2022-09-23T02:07:22.332Z,73.46
2022-09-23T02:09:57.354Z,73.28
2022-09-23T02:12:29.309Z,72.76
2022-09-23T02:15:04.146Z,72.30
2022-09-23T02:17:38.330Z,72.95
2022-09-23T02:20:06.825Z,72.25
2022-09-23T02:22:40.549Z,72.62
2022-09-23T02:25:09.713Z,72.62
2022-09-23T02:27:59.658Z,72.82
2022-09-23T02:30:36.298Z,72.47
2022-09-23T02:33:11.696Z,72.68
2022-09-23T02:36:05.513Z,73.04
2022-09-23T02:38:36.443Z,73.57
2022-09-23T02:41:29.918Z,74.06
2022-09-23T02:44:06.194Z,73.40
2022-09-23T02:46:34.089Z,73.69
2022-09-23T02:49:15.101Z,73.92
2022-09-23T02:51:41.611Z,72.96
2022-09-23T02:54:14.912Z,72.99
2022-09-23T02:56:41.702Z,73.52
2022-09-23T02:59:09.618Z,73.06
2022-09-23T03:02:04.905Z,73.97
2022-09-23T03:05:00.127Z,74.21
2022-09-23T03:07:42.676Z,74.31
2022-09-23T03:10:22.895Z,73.51
2022-09-23T03:13:28.671Z,74.42
2022-09-23T03:16:10.407Z,73.66
2022-09-23T03:18:52.211Z,73.80
2022-09-23T03:21:41.022Z,73.75
2022-09-23T03:24:10.751Z,74.13
2022-09-23T03:26:40.144Z,74.25
2022-09-23T03:29:10.096Z,73.67
2022-09-23T03:31:39.949Z,74.19
2022-09-23T03:34:16.331Z,74.29
2022-09-23T03:36:57.342Z,74.33
2022-09-23T03:39:31.329Z,75.05
2022-09-23T03:42:03.354Z,74.31
2022-09-23T03:44:30.166Z,74.75
2022-09-23T03:47:02.258Z,74.92
2022-09-23T03:49:33.304Z,74.72
2022-09-23T03:52:00.140Z,74.39
2022-09-23T03:54:27.893Z,74.06
2022-09-23T03:56:57.546Z,73.63
2022-09-23T03:59:24.810Z,73.72
2022-09-23T04:01:51.712Z,74.03
2022-09-23T04:04:18.280Z,73.43
2022-09-23T04:06:44.966Z,73.86
2022-09-23T04:09:11.473Z,73.89
2022-09-23T04:11:38.051Z,74.17
2022-09-23T04:14:05.510Z,73.54
2022-09-23T04:16:32.094Z,73.80
2022-09-23T04:18:58.747Z,74.52
2022-09-23T04:21:25.373Z,74.23
2022-09-23T04:23:51.990Z,74.44
2022-09-23T04:26:19.068Z,74.22
2022-09-23T04:28:45.389Z,73.84
2022-09-23T04:31:11.833Z,73.91
2022-09-23T04:33:38.265Z,74.49
2022-09-23T04:36:04.733Z,73.86
2022-09-23T04:38:31.265Z,74.32
2022-09-23T04:40:57.711Z,73.66
2022-09-23T04:43:24.300Z,74.28
2022-09-23T04:46:01.506Z,74.06
2022-09-23T04:48:29.026Z,74.13
2022-09-23T04:51:03.099Z,74.14
2022-09-23T04:53:29.538Z,74.10
2022-09-23T04:56:02.127Z,73.67
2022-09-23T04:58:29.038Z,73.84
2022-09-23T05:00:55.871Z,74.05
2022-09-23T05:03:23.824Z,73.91
2022-09-23T05:05:50.793Z,74.83
2022-09-23T05:08:17.246Z,74.12
2022-09-23T05:10:43.557Z,74.78
2022-09-23T05:13:09.922Z,74.34
2022-09-23T05:15:36.236Z,73.84
2022-09-23T05:18:02.587Z,73.98
2022-09-23T05:20:28.900Z,74.47
2022-09-23T05:22:56.063Z,74.54
2022-09-23T05:25:25.390Z,73.97
2022-09-23T05:27:52.308Z,75.00
2022-09-23T05:30:18.625Z,74.68
2022-09-23T05:32:45.524Z,74.49
2022-09-23T05:35:11.929Z,73.80
2022-09-23T05:37:38.278Z,73.67
2022-09-23T05:40:05.401Z,73.75
2022-09-23T05:42:31.897Z,73.85
2022-09-23T05:44:58.254Z,74.54
2022-09-23T05:47:24.605Z,74.15
2022-09-23T05:49:59.722Z,74.30
2022-09-23T05:52:27.465Z,74.64
2022-09-23T05:54:53.856Z,74.17
2022-09-23T05:57:21.345Z,74.55
2022-09-23T05:59:47.726Z,74.13
2022-09-23T06:02:15.098Z,74.31
2022-09-23T06:04:41.623Z,73.82
2022-09-23T06:07:08.610Z,73.66
2022-09-23T06:09:36.789Z,74.77
2022-09-23T06:12:04.820Z,74.97
2022-09-23T06:14:31.204Z,74.99
2022-09-23T06:16:57.536Z,75.84
2022-09-23T06:19:23.925Z,76.33
2022-09-23T06:21:50.289Z,76.68
2022-09-23T06:24:19.982Z,76.59
2022-09-23T06:26:49.019Z,76.75
2022-09-23T06:29:15.377Z,77.04
2022-09-23T06:31:41.990Z,77.64
2022-09-23T06:34:14.185Z,77.73
2022-09-23T06:36:44.843Z,77.58
2022-09-23T06:39:13.298Z,77.80
2022-09-23T06:41:39.649Z,77.28
2022-09-23T06:44:13.727Z,78.44
2022-09-23T06:46:40.246Z,78.47
2022-09-23T06:49:06.821Z,79.24
2022-09-23T06:51:33.715Z,78.56
2022-09-23T06:54:00.174Z,78.71
2022-09-23T06:56:26.664Z,78.82
2022-09-23T06:58:53.282Z,79.62
2022-09-23T07:01:20.083Z,79.21
2022-09-23T07:03:50.020Z,78.83
2022-09-23T07:06:17.132Z,79.41
2022-09-23T07:08:46.735Z,79.77
2022-09-23T07:11:13.776Z,79.16
2022-09-23T07:13:42.029Z,79.75
2022-09-23T07:16:09.838Z,79.61
2022-09-23T07:18:37.526Z,79.55
2022-09-23T07:21:15.425Z,79.14
2022-09-23T07:23:47.002Z,79.49
2022-09-23T07:26:14.861Z,79.04
2022-09-23T07:28:41.337Z,79.03
2022-09-23T07:31:13.803Z,79.37
2022-09-23T07:33:44.124Z,78.69
2022-09-23T07:36:13.859Z,78.09
2022-09-23T07:38:45.209Z,78.65
2022-09-23T07:41:14.642Z,77.96
2022-09-23T07:43:41.227Z,78.03
2022-09-23T07:46:16.204Z,77.51
2022-09-23T07:48:43.690Z,76.96
2022-09-23T07:51:12.822Z,76.86
2022-09-23T07:53:39.521Z,76.53
2022-09-23T07:56:06.572Z,75.87
2022-09-23T07:58:34.360Z,75.49
2022-09-23T08:01:06.034Z,75.25
2022-09-23T08:03:32.774Z,75.27
2022-09-23T08:06:11.882Z,74.52
2022-09-23T08:08:40.598Z,74.36
2022-09-23T08:11:10.150Z,74.05
2022-09-23T08:13:37.067Z,73.97
2022-09-23T08:16:04.423Z,73.32
2022-09-23T08:18:30.928Z,72.94
2022-09-23T08:20:57.287Z,72.91
2022-09-23T08:23:23.786Z,72.42
2022-09-23T08:25:59.501Z,72.55
2022-09-23T08:28:26.797Z,72.39
2022-09-23T08:30:53.160Z,71.95
2022-09-23T08:33:23.340Z,71.57
2022-09-23T08:35:50.329Z,71.73
2022-09-23T08:38:16.689Z,71.38
2022-09-23T08:40:47.352Z,69.58
2022-09-23T08:43:34.662Z,68.75
2022-09-23T08:46:05.185Z,69.42
2022-09-23T08:48:38.494Z,68.95
2022-09-23T08:51:10.840Z,68.32
2022-09-23T08:53:37.715Z,67.44
2022-09-23T08:56:10.744Z,66.94
2022-09-23T08:58:47.239Z,66.70
2022-09-23T09:01:26.173Z,66.59
2022-09-23T09:03:58.415Z,66.16
2022-09-23T09:06:27.766Z,66.13
2022-09-23T09:08:59.022Z,65.51
2022-09-23T09:11:31.164Z,65.46
2022-09-23T09:14:05.780Z,64.50
2022-09-23T09:16:59.864Z,64.57
2022-09-23T09:19:55.368Z,63.20
2022-09-23T09:22:28.227Z,63.01
2022-09-23T09:25:02.712Z,63.35
2022-09-23T09:27:29.366Z,61.98
2022-09-23T09:29:56.763Z,62.12
2022-09-23T09:32:38.354Z,61.30
2022-09-23T09:35:23.820Z,60.88
2022-09-23T09:37:50.356Z,61.57
2022-09-23T09:40:17.271Z,61.82
2022-09-23T09:42:47.803Z,61.42
2022-09-23T09:45:14.104Z,61.68
2022-09-23T09:47:46.482Z,61.07
2022-09-23T09:50:20.526Z,61.01
2022-09-23T09:52:48.352Z,60.91
2022-09-23T09:55:14.658Z,60.84
2022-09-23T09:57:45.213Z,60.39
2022-09-23T10:00:35.934Z,60.52
2022-09-23T10:03:14.409Z,61.20
2022-09-23T10:05:43.747Z,60.93
2022-09-23T10:08:32.303Z,60.38
2022-09-23T10:10:58.612Z,59.75
2022-09-23T10:13:29.298Z,59.35
2022-09-23T10:15:57.871Z,60.03
2022-09-23T10:18:31.929Z,60.84
2022-09-23T10:21:17.078Z,59.61
2022-09-23T10:23:58.230Z,59.82
2022-09-23T10:26:32.678Z,59.25
2022-09-23T10:29:03.270Z,59.46
2022-09-23T10:31:32.231Z,59.66
2022-09-23T10:34:27.485Z,58.57
2022-09-23T10:37:03.141Z,58.78
2022-09-23T10:39:48.067Z,59.51
2022-09-23T10:43:08.446Z,59.86
2022-09-23T10:45:57.838Z,58.79
2022-09-23T10:48:51.853Z,59.04
2022-09-23T10:51:40.373Z,59.30
2022-09-23T10:54:28.042Z,58.39
2022-09-23T10:57:01.314Z,58.35
2022-09-23T10:59:43.497Z,58.62
2022-09-23T11:02:34.509Z,58.96
2022-09-23T11:05:34.923Z,58.84
2022-09-23T11:08:27.244Z,58.76
2022-09-23T11:11:19.117Z,56.74
2022-09-23T11:14:15.748Z,55.99
2022-09-23T11:16:53.889Z,56.60
2022-09-23T11:19:34.145Z,57.03
2022-09-23T11:22:26.024Z,56.85
2022-09-23T11:25:28.025Z,56.59
2022-09-23T11:28:15.693Z,55.03
2022-09-23T11:31:09.879Z,54.38
2022-09-23T11:33:52.693Z,54.28
2022-09-23T11:36:30.329Z,54.13
2022-09-23T11:39:01.143Z,52.90
2022-09-23T11:41:36.038Z,52.06
2022-09-23T11:44:21.134Z,51.84
2022-09-23T11:46:57.533Z,52.50
2022-09-23T11:49:36.617Z,51.99
2022-09-23T11:52:10.139Z,50.71
2022-09-23T11:54:56.738Z,50.50
2022-09-23T11:57:42.106Z,50.51
2022-09-23T12:00:24.177Z,50.38
2022-09-23T12:03:09.277Z,50.20
2022-09-23T12:06:12.523Z,49.21
2022-09-23T12:08:39.104Z,48.52
2022-09-23T12:11:22.003Z,47.44
2022-09-23T12:13:57.741Z,47.06
2022-09-23T12:16:44.246Z,46.61
2022-09-23T12:19:22.770Z,46.89
2022-09-23T12:22:08.249Z,47.94
2022-09-23T12:25:30.871Z,47.67
2022-09-23T12:28:03.614Z,47.27
2022-09-23T12:30:33.985Z,47.05
2022-09-23T12:33:22.378Z,46.46
2022-09-23T12:35:48.901Z,45.38
2022-09-23T12:38:22.852Z,44.28
2022-09-23T12:40:51.066Z,44.00
2022-09-23T12:43:29.728Z,43.80
2022-09-23T12:46:28.365Z,44.69
2022-09-23T12:48:57.958Z,46.08
2022-09-23T12:51:48.581Z,46.35
2022-09-23T12:54:22.722Z,47.00
2022-09-23T12:56:51.797Z,46.68
2022-09-23T12:59:30.405Z,45.36
2022-09-23T13:01:57.936Z,44.83
2022-09-23T13:04:53.115Z,45.18
2022-09-23T13:07:29.908Z,45.60
2022-09-23T13:10:05.661Z,45.97
2022-09-23T13:12:38.827Z,46.67
2022-09-23T13:15:16.541Z,47.03
2022-09-23T13:17:43.030Z,48.01
2022-09-23T13:20:21.503Z,49.04
2022-09-23T13:22:51.814Z,47.86
2022-09-23T13:25:32.506Z,46.99
2022-09-23T13:28:01.973Z,46.49
2022-09-23T13:30:28.514Z,46.96
2022-09-23T13:33:21.338Z,47.33
2022-09-23T13:35:55.926Z,45.67
2022-09-23T13:38:26.461Z,44.30
2022-09-23T13:40:59.895Z,44.79
2022-09-23T13:43:36.502Z,44.51
2022-09-23T13:46:14.053Z,44.41
2022-09-23T13:48:43.407Z,45.20
2022-09-23T13:51:12.162Z,44.77
2022-09-23T13:53:38.853Z,44.97
2022-09-23T13:56:15.745Z,45.35
2022-09-23T13:58:43.293Z,45.00
2022-09-23T14:01:22.077Z,45.12
2022-09-23T14:03:48.530Z,44.73
2022-09-23T14:06:16.291Z,45.03
2022-09-23T14:08:50.655Z,45.39
2022-09-23T14:11:19.098Z,45.37
2022-09-23T14:13:47.107Z,44.34
2022-09-23T14:16:15.993Z,42.64
2022-09-23T14:18:48.271Z,42.99
2022-09-23T14:21:35.653Z,43.83
2022-09-23T14:24:17.074Z,43.67
2022-09-23T14:26:48.340Z,43.30
2022-09-23T14:29:35.870Z,43.20
2022-09-23T14:32:07.559Z,43.98
2022-09-23T14:34:53.542Z,44.89
2022-09-23T14:37:56.851Z,44.90
2022-09-23T14:40:29.477Z,44.44
2022-09-23T14:43:04.754Z,43.42
2022-09-23T14:45:37.370Z,43.21
2022-09-23T14:48:22.731Z,43.23
2022-09-23T14:50:58.042Z,43.92
2022-09-23T14:53:51.860Z,44.21
2022-09-23T14:56:24.115Z,44.01
2022-09-23T14:58:59.715Z,44.21
2022-09-23T15:01:26.078Z,45.18
2022-09-23T15:03:53.359Z,44.99
2022-09-23T15:06:22.944Z,45.29
2022-09-23T15:08:50.986Z,45.60
2022-09-23T15:11:18.020Z,45.90
2022-09-23T15:13:49.317Z,46.29
2022-09-23T15:16:16.548Z,45.17
2022-09-23T15:18:45.951Z,45.56
2022-09-23T15:21:19.298Z,44.91
2022-09-23T15:23:54.207Z,45.50
2022-09-23T15:26:23.130Z,44.41
2022-09-23T15:28:51.951Z,44.38
2022-09-23T15:31:20.086Z,42.86
2022-09-23T15:33:47.911Z,40.52
2022-09-23T15:36:18.458Z,37.30
2022-09-23T15:38:46.056Z,37.65
2022-09-23T15:41:14.175Z,38.90
2022-09-23T15:43:44.209Z,37.84
2022-09-23T15:46:27.979Z,35.49
2022-09-23T15:49:05.305Z,35.52
2022-09-23T15:51:31.881Z,37.25
2022-09-23T15:53:58.452Z,39.51
2022-09-23T15:56:26.941Z,41.00
2022-09-23T15:58:53.309Z,42.20
2022-09-23T16:01:28.010Z,43.23
2022-09-23T16:03:55.582Z,43.81
2022-09-23T16:06:22.168Z,44.71
2022-09-23T16:08:49.167Z,45.66
2022-09-23T16:11:21.785Z,46.38
2022-09-23T16:13:48.131Z,46.53
2022-09-23T16:16:14.634Z,47.36
2022-09-23T16:18:43.692Z,48.30
2022-09-23T16:21:13.662Z,49.81
2022-09-23T16:23:43.613Z,51.04
2022-09-23T16:26:15.994Z,52.68
2022-09-23T16:28:43.834Z,53.38
2022-09-23T16:31:11.777Z,54.33
2022-09-23T16:33:38.514Z,55.36
2022-09-23T16:36:09.306Z,56.22
2022-09-23T16:38:35.818Z,57.18
2022-09-23T16:41:02.924Z,57.81
2022-09-23T16:43:39.203Z,58.60
2022-09-23T16:46:12.102Z,59.31
2022-09-23T16:48:40.766Z,59.97
2022-09-23T16:51:08.795Z,60.83
2022-09-23T16:53:35.961Z,61.25
2022-09-23T16:56:09.427Z,61.95
2022-09-23T16:58:37.372Z,62.42
2022-09-23T17:01:23.523Z,62.97
2022-09-23T17:03:50.305Z,63.46
2022-09-23T17:06:19.239Z,64.20
2022-09-23T17:08:51.019Z,64.47
2022-09-23T17:11:17.637Z,64.94
2022-09-23T17:13:44.495Z,65.33
2022-09-23T17:16:21.549Z,65.91
2022-09-23T17:18:47.982Z,66.43
2022-09-23T17:21:14.342Z,66.71
2022-09-23T17:23:41.150Z,66.96
2022-09-23T17:26:09.767Z,67.25
2022-09-23T17:28:36.328Z,67.37
2022-09-23T17:31:05.040Z,67.45
2022-09-23T17:33:33.318Z,67.96
2022-09-23T17:36:02.552Z,67.91
2022-09-23T17:38:29.666Z,68.28
2022-09-23T17:40:59.025Z,68.81
2022-09-23T17:43:25.748Z,68.98
2022-09-23T17:45:54.412Z,69.24
2022-09-23T17:48:22.297Z,69.73
2022-09-23T17:50:55.723Z,70.64
2022-09-23T17:53:23.003Z,70.40
2022-09-23T17:56:00.862Z,71.01
2022-09-23T17:58:29.407Z,71.30
2022-09-23T18:00:56.338Z,71.34
2022-09-23T18:03:27.427Z,72.18
2022-09-23T18:05:54.162Z,72.53
2022-09-23T18:08:21.031Z,72.83
2022-09-23T18:10:47.406Z,73.20
2022-09-23T18:13:13.799Z,73.78
2022-09-23T18:15:40.365Z,73.74
2022-09-23T18:18:07.146Z,73.90
2022-09-23T18:20:33.840Z,74.38
2022-09-23T18:23:00.171Z,73.90
2022-09-23T18:25:39.182Z,74.40
2022-09-23T18:28:06.268Z,74.92
2022-09-23T18:30:33.364Z,74.95
2022-09-23T18:32:59.891Z,75.06
2022-09-23T18:35:26.430Z,75.00
2022-09-23T18:37:52.785Z,75.69
2022-09-23T18:40:19.305Z,75.32
2022-09-23T18:42:45.668Z,75.73
2022-09-23T18:45:12.086Z,75.79
2022-09-23T18:47:56.871Z,76.02
2022-09-23T18:50:43.018Z,76.25
2022-09-23T18:53:10.332Z,76.78
2022-09-23T18:55:37.097Z,76.52
2022-09-23T18:58:03.684Z,77.09
2022-09-23T19:00:30.232Z,77.28
2022-09-23T19:02:56.718Z,77.08
2022-09-23T19:05:23.317Z,77.30
2022-09-23T19:07:49.695Z,77.14
2022-09-23T19:10:16.360Z,77.52
2022-09-23T19:12:42.677Z,77.20
2022-09-23T19:15:09.274Z,77.62
2022-09-23T19:17:35.713Z,77.24
2022-09-23T19:20:02.183Z,77.53
2022-09-23T19:22:30.326Z,77.41
2022-09-23T19:24:56.689Z,78.30
2022-09-23T19:27:23.389Z,78.02
2022-09-23T19:29:50.173Z,78.17
2022-09-23T19:32:16.657Z,78.74
2022-09-23T19:34:44.167Z,78.16
2022-09-23T19:37:10.507Z,78.74
2022-09-23T19:39:37.480Z,78.02
2022-09-23T19:42:03.955Z,78.29
2022-09-23T19:44:30.384Z,78.26
2022-09-23T19:46:57.561Z,78.32
2022-09-23T19:49:25.505Z,78.29
2022-09-23T19:51:55.001Z,78.61
2022-09-23T19:54:21.335Z,78.85
2022-09-23T19:56:49.562Z,79.21
2022-09-23T19:59:18.826Z,78.81
2022-09-23T20:01:47.668Z,78.72
2022-09-23T20:04:15.549Z,78.73
2022-09-23T20:06:41.918Z,79.06
2022-09-23T20:09:08.358Z,79.29
2022-09-23T20:11:35.848Z,79.56
2022-09-23T20:14:03.814Z,79.79
2022-09-23T20:16:33.215Z,79.71
2022-09-23T20:19:00.598Z,79.63
2022-09-23T20:21:28.982Z,79.41
2022-09-23T20:23:56.162Z,79.49
2022-09-23T20:26:41.361Z,79.83
2022-09-23T20:29:08.838Z,80.06
2022-09-23T20:31:35.367Z,79.99
2022-09-23T20:34:05.464Z,79.61
2022-09-23T20:36:32.899Z,79.80
2022-09-23T20:39:01.294Z,79.76
2022-09-23T20:41:29.723Z,79.73
2022-09-23T20:43:59.326Z,80.23
2022-09-23T20:46:27.072Z,80.63
2022-09-23T20:48:54.261Z,80.51
2022-09-23T20:51:20.870Z,80.40
2022-09-23T20:53:54.150Z,80.82
2022-09-23T20:56:21.263Z,80.75
2022-09-23T20:58:50.338Z,80.74
2022-09-23T21:01:17.224Z,80.50
2022-09-23T21:03:46.011Z,80.50
2022-09-23T21:06:14.515Z,80.85
2022-09-23T21:08:42.128Z,80.97
2022-09-23T21:11:14.854Z,80.67
2022-09-23T21:13:49.071Z,81.07
2022-09-23T21:16:17.146Z,80.61
2022-09-23T21:18:44.544Z,81.08
2022-09-23T21:21:12.148Z,81.43
2022-09-23T21:23:39.074Z,81.18
2022-09-23T21:26:13.729Z,81.37
2022-09-23T21:28:42.241Z,81.06
2022-09-23T21:31:11.705Z,81.06
2022-09-23T21:33:38.120Z,81.72
2022-09-23T21:36:06.877Z,81.51
2022-09-23T21:38:37.083Z,81.87
2022-09-23T21:41:07.419Z,81.75
2022-09-23T21:43:37.212Z,81.29
2022-09-23T21:46:06.188Z,81.45
2022-09-23T21:48:37.666Z,81.67
2022-09-23T21:51:07.727Z,81.43
2022-09-23T21:53:36.710Z,82.13
2022-09-23T21:56:20.694Z,81.93
2022-09-23T21:58:48.024Z,82.04
2022-09-23T22:01:15.845Z,81.55
2022-09-23T22:03:43.524Z,81.73
2022-09-23T22:06:15.083Z,82.07
2022-09-23T22:08:43.285Z,81.77
2022-09-23T22:11:31.314Z,81.98
2022-09-23T22:13:58.853Z,82.15
2022-09-23T22:16:26.111Z,82.18
2022-09-23T22:18:55.148Z,82.34
2022-09-23T22:21:23.017Z,82.16
2022-09-23T22:23:52.239Z,82.44
2022-09-23T22:26:18.585Z,82.37
2022-09-23T22:29:03.666Z,82.62
2022-09-23T22:31:48.436Z,81.92
2022-09-23T22:34:37.614Z,82.32
2022-09-23T22:37:01.710Z,82.34
2022-09-23T22:39:29.801Z,82.13
2022-09-23T22:41:58.322Z,82.34
2022-09-23T22:44:25.512Z,82.55
2022-09-23T22:46:51.990Z,82.35
2022-09-23T22:49:21.102Z,82.66
2022-09-23T22:51:47.485Z,82.57
2022-09-23T22:54:13.969Z,82.31
2022-09-23T22:56:40.329Z,82.31
2022-09-23T22:59:08.523Z,82.01
2022-09-23T23:01:35.439Z,82.36
2022-09-23T23:04:02.495Z,82.16
2022-09-23T23:06:35.775Z,82.24
2022-09-23T23:09:16.963Z,81.92
2022-09-23T23:11:44.812Z,81.85
2022-09-23T23:14:16.862Z,82.08
2022-09-23T23:16:45.101Z,81.99
2022-09-23T23:19:14.682Z,82.09
2022-09-23T23:21:44.663Z,82.17
2022-09-23T23:24:15.640Z,82.43
2022-09-23T23:26:42.471Z,82.44
2022-09-23T23:29:11.670Z,82.51
2022-09-23T23:31:38.475Z,83.05
2022-09-23T23:34:08.211Z,83.24
2022-09-23T23:36:34.673Z,82.77
2022-09-23T23:39:01.098Z,83.06
2022-09-23T23:41:28.299Z,82.59
2022-09-23T23:43:56.997Z,83.08
2022-09-23T23:46:26.324Z,82.86
2022-09-23T23:48:54.146Z,82.86
2022-09-23T23:51:21.190Z,82.71
2022-09-23T23:53:48.207Z,82.66
2022-09-23T23:56:19.550Z,82.65
2022-09-23T23:58:45.908Z,82.80
